sensor_id;sensor_type;location;lat;lon;timestamp;pressure;altitude;pressure_sealevel;temperature;humidity
32197;BME280;18697;42.770;23.400;2023-05-09T00:00:31;95892.97;;;18.44;61.08
32197;BME280;18697;42.770;23.400;2023-05-09T00:02:57;95888.59;;;18.37;61.03
32197;BME280;18697;42.770;23.400;2023-05-09T00:05:22;95894.47;;;18.22;61.01
32197;BME280;18697;42.770;23.400;2023-05-09T00:07:48;95894.97;;;18.15;61.85
32197;BME280;18697;42.770;23.400;2023-05-09T00:10:13;95899.53;;;18.01;62.03
32197;BME280;18697;42.770;23.400;2023-05-09T00:12:39;95886.47;;;17.93;62.92
32197;BME280;18697;42.770;23.400;2023-05-09T00:15:06;95884.66;;;17.84;62.08
32197;BME280;18697;42.770;23.400;2023-05-09T00:17:33;95892.22;;;17.61;63.63
32197;BME280;18697;42.770;23.400;2023-05-09T00:19:58;95882.44;;;17.40;64.73
32197;BME280;18697;42.770;23.400;2023-05-09T00:22:25;95885.66;;;17.22;64.72
32197;BME280;18697;42.770;23.400;2023-05-09T00:24:51;95885.88;;;17.18;65.32
32197;BME280;18697;42.770;23.400;2023-05-09T00:27:17;95889.19;;;17.17;65.51
32197;BME280;18697;42.770;23.400;2023-05-09T00:29:42;95882.59;;;17.25;65.13
32197;BME280;18697;42.770;23.400;2023-05-09T00:32:09;95879.19;;;17.10;64.56
32197;BME280;18697;42.770;23.400;2023-05-09T00:34:34;95877.38;;;16.64;65.47
32197;BME280;18697;42.770;23.400;2023-05-09T00:37:00;95885.19;;;16.23;66.62
32197;BME280;18697;42.770;23.400;2023-05-09T00:39:25;95882.22;;;16.06;68.00
32197;BME280;18697;42.770;23.400;2023-05-09T00:41:51;95876.94;;;15.88;68.51
32197;BME280;18697;42.770;23.400;2023-05-09T00:44:16;95871.41;;;15.73;68.89
32197;BME280;18697;42.770;23.400;2023-05-09T00:46:42;95874.44;;;15.70;68.94
32197;BME280;18697;42.770;23.400;2023-05-09T00:49:08;95878.91;;;15.62;69.56
32197;BME280;18697;42.770;23.400;2023-05-09T00:51:34;95869.13;;;15.52;69.96
32197;BME280;18697;42.770;23.400;2023-05-09T00:54:00;95868.72;;;15.38;70.70
32197;BME280;18697;42.770;23.400;2023-05-09T00:56:26;95870.25;;;15.39;71.15
32197;BME280;18697;42.770;23.400;2023-05-09T00:58:51;95865.06;;;15.32;71.41
32197;BME280;18697;42.770;23.400;2023-05-09T01:01:16;95855.41;;;15.13;70.90
32197;BME280;18697;42.770;23.400;2023-05-09T01:03:42;95860.38;;;15.24;71.46
32197;BME280;18697;42.770;23.400;2023-05-09T01:06:56;95858.91;;;15.28;70.74
32197;BME280;18697;42.770;23.400;2023-05-09T01:11:55;95862.00;;;15.30;70.95
32197;BME280;18697;42.770;23.400;2023-05-09T01:14:36;95859.63;;;15.23;71.51
32197;BME280;18697;42.770;23.400;2023-05-09T01:17:15;95864.94;;;15.21;71.55
32197;BME280;18697;42.770;23.400;2023-05-09T01:22:12;95866.03;;;15.09;71.66
32197;BME280;18697;42.770;23.400;2023-05-09T01:29:47;95859.63;;;15.23;71.56
32197;BME280;18697;42.770;23.400;2023-05-09T01:32:18;95877.38;;;15.40;71.23
32197;BME280;18697;42.770;23.400;2023-05-09T01:34:44;95875.06;;;15.39;71.19
32197;BME280;18697;42.770;23.400;2023-05-09T01:37:16;95867.72;;;15.41;71.06
32197;BME280;18697;42.770;23.400;2023-05-09T01:39:45;95867.38;;;15.34;71.68
32197;BME280;18697;42.770;23.400;2023-05-09T01:42:13;95869.81;;;15.47;71.09
32197;BME280;18697;42.770;23.400;2023-05-09T01:44:42;95872.13;;;15.48;70.51
32197;BME280;18697;42.770;23.400;2023-05-09T01:47:10;95872.06;;;15.22;71.03
32197;BME280;18697;42.770;23.400;2023-05-09T01:49:37;95872.63;;;15.26;71.16
32197;BME280;18697;42.770;23.400;2023-05-09T01:52:07;95884.38;;;15.30;71.48
32197;BME280;18697;42.770;23.400;2023-05-09T01:54:34;95887.47;;;15.32;70.90
32197;BME280;18697;42.770;23.400;2023-05-09T01:57:01;95885.63;;;15.29;71.16
32197;BME280;18697;42.770;23.400;2023-05-09T01:59:28;95894.19;;;15.40;70.90
32197;BME280;18697;42.770;23.400;2023-05-09T02:01:55;95895.97;;;15.58;71.07
32197;BME280;18697;42.770;23.400;2023-05-09T02:04:20;95886.94;;;15.95;69.92
32197;BME280;18697;42.770;23.400;2023-05-09T02:06:48;95888.03;;;16.29;68.01
32197;BME280;18697;42.770;23.400;2023-05-09T02:09:17;95880.06;;;16.53;66.87
32197;BME280;18697;42.770;23.400;2023-05-09T02:11:43;95884.13;;;16.21;66.14
32197;BME280;18697;42.770;23.400;2023-05-09T02:14:08;95897.72;;;16.28;66.93
32197;BME280;18697;42.770;23.400;2023-05-09T02:16:34;95886.56;;;16.39;67.10
32197;BME280;18697;42.770;23.400;2023-05-09T02:18:59;95892.63;;;16.63;65.38
32197;BME280;18697;42.770;23.400;2023-05-09T02:21:25;95893.13;;;16.62;64.66
32197;BME280;18697;42.770;23.400;2023-05-09T02:23:50;95894.97;;;16.39;65.68
32197;BME280;18697;42.770;23.400;2023-05-09T02:26:16;95894.34;;;16.24;65.76
32197;BME280;18697;42.770;23.400;2023-05-09T02:28:43;95887.44;;;16.19;66.92
32197;BME280;18697;42.770;23.400;2023-05-09T02:31:10;95891.00;;;15.94;66.80
32197;BME280;18697;42.770;23.400;2023-05-09T02:33:37;95894.44;;;15.83;68.38
32197;BME280;18697;42.770;23.400;2023-05-09T02:36:04;95898.13;;;15.95;67.52
32197;BME280;18697;42.770;23.400;2023-05-09T02:38:30;95901.16;;;16.17;67.70
32197;BME280;18697;42.770;23.400;2023-05-09T02:40:55;95896.66;;;16.57;66.80
32197;BME280;18697;42.770;23.400;2023-05-09T02:43:21;95896.25;;;17.01;64.77
32197;BME280;18697;42.770;23.400;2023-05-09T02:45:46;95894.31;;;17.18;64.19
32197;BME280;18697;42.770;23.400;2023-05-09T02:48:12;95893.94;;;17.48;63.28
32197;BME280;18697;42.770;23.400;2023-05-09T02:50:37;95891.06;;;17.79;62.00
32197;BME280;18697;42.770;23.400;2023-05-09T02:53:03;95898.22;;;17.97;60.50
32197;BME280;18697;42.770;23.400;2023-05-09T02:55:29;95901.09;;;18.19;60.28
32197;BME280;18697;42.770;23.400;2023-05-09T02:57:54;95906.72;;;18.25;60.08
32197;BME280;18697;42.770;23.400;2023-05-09T03:00:20;95908.78;;;18.35;59.71
32197;BME280;18697;42.770;23.400;2023-05-09T03:02:46;95919.03;;;18.38;59.14
32197;BME280;18697;42.770;23.400;2023-05-09T03:05:11;95914.66;;;18.32;59.65
32197;BME280;18697;42.770;23.400;2023-05-09T03:07:37;95913.13;;;18.25;59.43
32197;BME280;18697;42.770;23.400;2023-05-09T03:10:03;95914.09;;;18.05;59.15
32197;BME280;18697;42.770;23.400;2023-05-09T03:12:28;95923.03;;;17.45;59.37
32197;BME280;18697;42.770;23.400;2023-05-09T03:14:54;95922.50;;;16.98;61.70
32197;BME280;18697;42.770;23.400;2023-05-09T03:17:19;95921.81;;;16.71;62.34
32197;BME280;18697;42.770;23.400;2023-05-09T03:19:46;95930.31;;;16.57;63.33
32197;BME280;18697;42.770;23.400;2023-05-09T03:22:12;95929.50;;;16.51;64.17
32197;BME280;18697;42.770;23.400;2023-05-09T03:24:38;95928.72;;;16.50;64.27
32197;BME280;18697;42.770;23.400;2023-05-09T03:27:03;95930.22;;;16.46;64.60
32197;BME280;18697;42.770;23.400;2023-05-09T03:29:28;95934.56;;;16.21;64.71
32197;BME280;18697;42.770;23.400;2023-05-09T03:31:54;95932.22;;;16.14;64.37
32197;BME280;18697;42.770;23.400;2023-05-09T03:34:19;95935.53;;;16.43;65.75
32197;BME280;18697;42.770;23.400;2023-05-09T03:36:45;95932.19;;;16.65;64.14
32197;BME280;18697;42.770;23.400;2023-05-09T03:39:10;95936.13;;;16.53;65.12
32197;BME280;18697;42.770;23.400;2023-05-09T03:41:36;95936.47;;;16.87;65.84
32197;BME280;18697;42.770;23.400;2023-05-09T03:44:04;95932.53;;;17.10;63.92
32197;BME280;18697;42.770;23.400;2023-05-09T03:46:29;95943.28;;;17.17;63.43
32197;BME280;18697;42.770;23.400;2023-05-09T03:48:55;95947.63;;;17.18;61.97
32197;BME280;18697;42.770;23.400;2023-05-09T03:51:20;95945.69;;;17.35;63.37
32197;BME280;18697;42.770;23.400;2023-05-09T03:53:46;95941.81;;;17.27;62.05
32197;BME280;18697;42.770;23.400;2023-05-09T03:56:12;95950.19;;;17.22;61.49
32197;BME280;18697;42.770;23.400;2023-05-09T03:58:37;95949.91;;;17.14;63.00
32197;BME280;18697;42.770;23.400;2023-05-09T04:01:03;95943.13;;;17.32;63.19
32197;BME280;18697;42.770;23.400;2023-05-09T04:03:28;95948.00;;;17.37;61.54
32197;BME280;18697;42.770;23.400;2023-05-09T04:05:54;95959.56;;;17.50;63.06
32197;BME280;18697;42.770;23.400;2023-05-09T04:08:20;95949.63;;;17.55;62.52
32197;BME280;18697;42.770;23.400;2023-05-09T04:10:45;95957.06;;;17.58;61.54
32197;BME280;18697;42.770;23.400;2023-05-09T04:13:11;95956.13;;;17.72;61.58
32197;BME280;18697;42.770;23.400;2023-05-09T04:15:36;95960.50;;;17.73;60.31
32197;BME280;18697;42.770;23.400;2023-05-09T04:18:01;95954.91;;;17.79;61.50
32197;BME280;18697;42.770;23.400;2023-05-09T04:20:27;95960.28;;;17.88;60.36
32197;BME280;18697;42.770;23.400;2023-05-09T04:22:52;95959.06;;;18.05;60.76
32197;BME280;18697;42.770;23.400;2023-05-09T04:25:18;95959.41;;;18.35;59.58
32197;BME280;18697;42.770;23.400;2023-05-09T04:27:44;95959.44;;;18.52;59.17
32197;BME280;18697;42.770;23.400;2023-05-09T04:30:10;95955.59;;;18.44;60.01
32197;BME280;18697;42.770;23.400;2023-05-09T04:32:36;95958.91;;;18.43;60.24
32197;BME280;18697;42.770;23.400;2023-05-09T04:35:03;95963.78;;;18.42;60.63
32197;BME280;18697;42.770;23.400;2023-05-09T04:37:28;95959.13;;;18.28;59.61
32197;BME280;18697;42.770;23.400;2023-05-09T04:39:55;95958.63;;;18.24;60.46
32197;BME280;18697;42.770;23.400;2023-05-09T04:42:21;95966.00;;;18.16;62.17
32197;BME280;18697;42.770;23.400;2023-05-09T04:44:46;95964.28;;;18.57;60.68
32197;BME280;18697;42.770;23.400;2023-05-09T04:47:13;95961.47;;;18.46;61.01
32197;BME280;18697;42.770;23.400;2023-05-09T04:49:39;95965.06;;;18.47;60.59
32197;BME280;18697;42.770;23.400;2023-05-09T04:52:04;95965.44;;;18.06;60.28
32197;BME280;18697;42.770;23.400;2023-05-09T04:54:31;95956.28;;;18.11;61.06
32197;BME280;18697;42.770;23.400;2023-05-09T04:56:56;95971.22;;;17.75;61.53
32197;BME280;18697;42.770;23.400;2023-05-09T04:59:22;95971.50;;;17.77;62.63
32197;BME280;18697;42.770;23.400;2023-05-09T05:01:47;95967.75;;;17.54;62.27
32197;BME280;18697;42.770;23.400;2023-05-09T05:04:13;95967.72;;;17.11;65.57
32197;BME280;18697;42.770;23.400;2023-05-09T05:06:38;95969.03;;;16.27;66.14
32197;BME280;18697;42.770;23.400;2023-05-09T05:09:03;95966.81;;;16.36;67.72
32197;BME280;18697;42.770;23.400;2023-05-09T05:11:29;95964.16;;;15.61;69.30
32197;BME280;18697;42.770;23.400;2023-05-09T05:13:55;95968.28;;;15.10;70.96
32197;BME280;18697;42.770;23.400;2023-05-09T05:16:20;95968.31;;;15.30;72.57
32197;BME280;18697;42.770;23.400;2023-05-09T05:18:45;95959.28;;;15.76;70.89
32197;BME280;18697;42.770;23.400;2023-05-09T05:21:11;95960.53;;;15.95;69.61
32197;BME280;18697;42.770;23.400;2023-05-09T05:23:36;95964.59;;;15.94;69.13
32197;BME280;18697;42.770;23.400;2023-05-09T05:26:01;95961.84;;;16.00;69.11
32197;BME280;18697;42.770;23.400;2023-05-09T05:28:27;95967.50;;;16.26;68.86
32197;BME280;18697;42.770;23.400;2023-05-09T05:30:53;95965.63;;;16.17;68.63
32197;BME280;18697;42.770;23.400;2023-05-09T05:33:18;95971.09;;;16.58;67.67
32197;BME280;18697;42.770;23.400;2023-05-09T05:35:44;95968.84;;;16.88;66.75
32197;BME280;18697;42.770;23.400;2023-05-09T05:38:09;95966.03;;;16.88;63.86
32197;BME280;18697;42.770;23.400;2023-05-09T05:40:34;95970.13;;;16.87;64.47
32197;BME280;18697;42.770;23.400;2023-05-09T05:43:00;95973.25;;;16.94;63.65
32197;BME280;18697;42.770;23.400;2023-05-09T05:45:25;95973.97;;;16.89;64.13
32197;BME280;18697;42.770;23.400;2023-05-09T05:47:51;95982.34;;;16.84;63.32
32197;BME280;18697;42.770;23.400;2023-05-09T05:50:16;95981.78;;;16.80;64.19
32197;BME280;18697;42.770;23.400;2023-05-09T05:52:42;95973.31;;;16.74;64.29
32197;BME280;18697;42.770;23.400;2023-05-09T05:55:07;95973.31;;;16.74;63.99
32197;BME280;18697;42.770;23.400;2023-05-09T05:57:33;95976.88;;;16.49;64.03
32197;BME280;18697;42.770;23.400;2023-05-09T06:00:03;95985.69;;;16.62;64.65
32197;BME280;18697;42.770;23.400;2023-05-09T06:02:31;95982.69;;;16.65;65.35
32197;BME280;18697;42.770;23.400;2023-05-09T06:04:57;95980.13;;;16.93;65.29
32197;BME280;18697;42.770;23.400;2023-05-09T06:07:22;95976.44;;;17.13;63.54
32197;BME280;18697;42.770;23.400;2023-05-09T06:09:47;95977.22;;;17.19;61.99
32197;BME280;18697;42.770;23.400;2023-05-09T06:12:13;95972.06;;;17.06;62.01
32197;BME280;18697;42.770;23.400;2023-05-09T06:14:41;95967.50;;;17.15;62.38
32197;BME280;18697;42.770;23.400;2023-05-09T06:17:07;95974.72;;;17.27;62.68
32197;BME280;18697;42.770;23.400;2023-05-09T06:19:32;95970.22;;;17.40;62.13
32197;BME280;18697;42.770;23.400;2023-05-09T06:21:58;95972.56;;;17.48;61.46
32197;BME280;18697;42.770;23.400;2023-05-09T06:24:23;95967.72;;;17.48;60.20
32197;BME280;18697;42.770;23.400;2023-05-09T06:26:49;95972.53;;;17.42;61.24
32197;BME280;18697;42.770;23.400;2023-05-09T06:29:14;95973.44;;;17.22;59.58
32197;BME280;18697;42.770;23.400;2023-05-09T06:31:40;95966.97;;;17.11;62.38
32197;BME280;18697;42.770;23.400;2023-05-09T06:47:33;95972.19;;;17.29;60.49
32197;BME280;18697;42.770;23.400;2023-05-09T06:49:59;95968.84;;;17.25;59.52
32197;BME280;18697;42.770;23.400;2023-05-09T06:52:24;95972.47;;;17.31;58.76
32197;BME280;18697;42.770;23.400;2023-05-09T06:54:49;95974.78;;;17.32;59.00
32197;BME280;18697;42.770;23.400;2023-05-09T06:57:15;95969.09;;;17.21;60.19
32197;BME280;18697;42.770;23.400;2023-05-09T06:59:40;95967.84;;;17.28;58.45
32197;BME280;18697;42.770;23.400;2023-05-09T07:02:05;95962.97;;;17.23;58.90
32197;BME280;18697;42.770;23.400;2023-05-09T07:04:31;95968.38;;;17.32;60.62
32197;BME280;18697;42.770;23.400;2023-05-09T07:06:56;95973.34;;;17.48;59.37
32197;BME280;18697;42.770;23.400;2023-05-09T07:09:23;95963.97;;;17.62;59.27
32197;BME280;18697;42.770;23.400;2023-05-09T07:11:52;95965.41;;;17.47;58.34
32197;BME280;18697;42.770;23.400;2023-05-09T07:14:18;95964.41;;;17.50;58.06
32197;BME280;18697;42.770;23.400;2023-05-09T07:16:44;95966.22;;;17.53;58.10
32197;BME280;18697;42.770;23.400;2023-05-09T07:19:11;95970.59;;;17.59;58.56
32197;BME280;18697;42.770;23.400;2023-05-09T07:21:36;95965.25;;;17.61;59.26
32197;BME280;18697;42.770;23.400;2023-05-09T07:24:02;95953.84;;;17.70;59.09
32197;BME280;18697;42.770;23.400;2023-05-09T07:26:27;95968.66;;;17.71;59.30
32197;BME280;18697;42.770;23.400;2023-05-09T07:28:53;95963.94;;;17.57;57.24
32197;BME280;18697;42.770;23.400;2023-05-09T07:31:18;95973.28;;;17.37;58.14
32197;BME280;18697;42.770;23.400;2023-05-09T07:33:43;95963.88;;;17.08;58.24
32197;BME280;18697;42.770;23.400;2023-05-09T07:36:09;95970.22;;;16.98;59.83
32197;BME280;18697;42.770;23.400;2023-05-09T07:38:38;95975.28;;;16.94;60.26
32197;BME280;18697;42.770;23.400;2023-05-09T07:41:04;95964.56;;;16.92;61.12
32197;BME280;18697;42.770;23.400;2023-05-09T07:43:29;95974.59;;;17.04;59.52
32197;BME280;18697;42.770;23.400;2023-05-09T07:45:54;95976.59;;;16.98;59.60
32197;BME280;18697;42.770;23.400;2023-05-09T07:48:20;95975.63;;;16.75;61.57
32197;BME280;18697;42.770;23.400;2023-05-09T07:50:45;95982.72;;;16.71;63.63
32197;BME280;18697;42.770;23.400;2023-05-09T07:53:11;95986.03;;;16.69;63.72
32197;BME280;18697;42.770;23.400;2023-05-09T07:55:36;95992.47;;;16.75;63.37
32197;BME280;18697;42.770;23.400;2023-05-09T07:58:01;95990.78;;;16.63;63.83
32197;BME280;18697;42.770;23.400;2023-05-09T08:00:27;95982.47;;;16.69;63.53
32197;BME280;18697;42.770;23.400;2023-05-09T08:02:52;95986.41;;;16.83;62.99
32197;BME280;18697;42.770;23.400;2023-05-09T08:05:18;95981.66;;;16.94;62.99
32197;BME280;18697;42.770;23.400;2023-05-09T08:07:44;95981.94;;;16.96;60.43
32197;BME280;18697;42.770;23.400;2023-05-09T08:10:09;95976.72;;;16.58;59.90
32197;BME280;18697;42.770;23.400;2023-05-09T08:12:35;95988.31;;;16.45;61.17
32197;BME280;18697;42.770;23.400;2023-05-09T08:15:01;95986.00;;;16.18;60.64
32197;BME280;18697;42.770;23.400;2023-05-09T08:17:26;95980.41;;;15.97;62.64
32197;BME280;18697;42.770;23.400;2023-05-09T08:19:51;95991.75;;;15.88;62.18
32197;BME280;18697;42.770;23.400;2023-05-09T08:22:18;95995.47;;;16.00;62.43
32197;BME280;18697;42.770;23.400;2023-05-09T08:24:43;95986.72;;;15.92;61.58
32197;BME280;18697;42.770;23.400;2023-05-09T08:27:10;95988.34;;;15.99;61.58
32197;BME280;18697;42.770;23.400;2023-05-09T08:29:38;95987.91;;;16.06;60.94
32197;BME280;18697;42.770;23.400;2023-05-09T08:32:03;95989.44;;;16.07;61.80
32197;BME280;18697;42.770;23.400;2023-05-09T08:34:29;95992.13;;;15.96;61.55
32197;BME280;18697;42.770;23.400;2023-05-09T08:36:59;95980.97;;;16.01;61.34
32197;BME280;18697;42.770;23.400;2023-05-09T08:39:24;95985.81;;;16.01;61.49
32197;BME280;18697;42.770;23.400;2023-05-09T08:41:50;95988.34;;;15.99;61.89
32197;BME280;18697;42.770;23.400;2023-05-09T08:44:17;95987.69;;;15.69;60.95
32197;BME280;18697;42.770;23.400;2023-05-09T08:46:44;95977.16;;;15.58;61.40
32197;BME280;18697;42.770;23.400;2023-05-09T08:49:13;95983.56;;;15.64;62.87
32197;BME280;18697;42.770;23.400;2023-05-09T08:51:39;95983.50;;;15.79;62.53
32197;BME280;18697;42.770;23.400;2023-05-09T08:54:05;95980.28;;;15.86;62.76
32197;BME280;18697;42.770;23.400;2023-05-09T08:56:30;95970.41;;;15.70;61.58
32197;BME280;18697;42.770;23.400;2023-05-09T08:58:56;95977.69;;;15.62;61.97
32197;BME280;18697;42.770;23.400;2023-05-09T09:01:24;95982.75;;;15.58;61.24
32197;BME280;18697;42.770;23.400;2023-05-09T09:03:51;95973.13;;;15.85;63.69
32197;BME280;18697;42.770;23.400;2023-05-09T09:06:16;95977.81;;;16.14;61.36
32197;BME280;18697;42.770;23.400;2023-05-09T09:08:43;95982.34;;;16.32;61.13
32197;BME280;18697;42.770;23.400;2023-05-09T09:11:12;95980.06;;;16.36;60.00
32197;BME280;18697;42.770;23.400;2023-05-09T09:13:39;95976.81;;;16.43;60.60
32197;BME280;18697;42.770;23.400;2023-05-09T09:16:08;95974.78;;;16.43;60.54
32197;BME280;18697;42.770;23.400;2023-05-09T09:18:35;95967.97;;;16.50;59.97
32197;BME280;18697;42.770;23.400;2023-05-09T09:21:06;95955.94;;;16.70;59.32
32197;BME280;18697;42.770;23.400;2023-05-09T09:23:33;95967.84;;;16.91;60.48
32197;BME280;18697;42.770;23.400;2023-05-09T09:26:00;95965.94;;;17.08;58.14
32197;BME280;18697;42.770;23.400;2023-05-09T09:28:26;95964.94;;;17.11;57.92
32197;BME280;18697;42.770;23.400;2023-05-09T09:30:52;95971.97;;;16.95;57.09
32197;BME280;18697;42.770;23.400;2023-05-09T09:33:19;95965.41;;;16.72;58.13
32197;BME280;18697;42.770;23.400;2023-05-09T09:35:47;95971.47;;;16.65;58.56
32197;BME280;18697;42.770;23.400;2023-05-09T09:38:12;95971.66;;;16.62;58.88
32197;BME280;18697;42.770;23.400;2023-05-09T09:40:37;95967.25;;;16.55;57.39
32197;BME280;18697;42.770;23.400;2023-05-09T09:43:05;95961.09;;;16.51;55.75
32197;BME280;18697;42.770;23.400;2023-05-09T09:45:33;95961.22;;;16.62;58.92
32197;BME280;18697;42.770;23.400;2023-05-09T09:48:04;95952.19;;;16.79;56.27
32197;BME280;18697;42.770;23.400;2023-05-09T09:50:31;95954.06;;;16.87;57.73
32197;BME280;18697;42.770;23.400;2023-05-09T09:52:56;95966.09;;;16.93;56.46
32197;BME280;18697;42.770;23.400;2023-05-09T09:55:23;95970.41;;;16.89;56.96
32197;BME280;18697;42.770;23.400;2023-05-09T09:57:49;95979.03;;;16.85;57.71
32197;BME280;18697;42.770;23.400;2023-05-09T10:00:17;95972.81;;;16.75;58.35
32197;BME280;18697;42.770;23.400;2023-05-09T10:02:53;95962.25;;;16.91;57.34
32197;BME280;18697;42.770;23.400;2023-05-09T10:05:23;95961.88;;;17.15;57.28
32197;BME280;18697;42.770;23.400;2023-05-09T10:08:01;95959.97;;;17.32;55.55
32197;BME280;18697;42.770;23.400;2023-05-09T10:10:28;95960.75;;;17.32;56.25
32197;BME280;18697;42.770;23.400;2023-05-09T10:13:12;95967.63;;;17.31;54.58
32197;BME280;18697;42.770;23.400;2023-05-09T10:15:39;95954.28;;;17.21;55.88
32197;BME280;18697;42.770;23.400;2023-05-09T10:18:06;95948.94;;;16.86;57.31
32197;BME280;18697;42.770;23.400;2023-05-09T10:20:33;95957.78;;;17.10;57.75
32197;BME280;18697;42.770;23.400;2023-05-09T10:23:02;95953.25;;;17.18;56.16
32197;BME280;18697;42.770;23.400;2023-05-09T10:25:37;95957.19;;;17.37;56.31
32197;BME280;18697;42.770;23.400;2023-05-09T10:28:10;95950.09;;;17.48;56.97
32197;BME280;18697;42.770;23.400;2023-05-09T10:30:47;95949.84;;;17.46;56.49
32197;BME280;18697;42.770;23.400;2023-05-09T10:33:15;95948.63;;;17.58;56.78
32197;BME280;18697;42.770;23.400;2023-05-09T10:35:46;95954.88;;;17.73;55.90
32197;BME280;18697;42.770;23.400;2023-05-09T10:38:12;95943.22;;;17.49;55.07
32197;BME280;18697;42.770;23.400;2023-05-09T10:40:39;95940.22;;;17.15;57.51
32197;BME280;18697;42.770;23.400;2023-05-09T10:43:05;95941.69;;;17.48;56.43
32197;BME280;18697;42.770;23.400;2023-05-09T10:45:32;95950.88;;;17.48;56.13
32197;BME280;18697;42.770;23.400;2023-05-09T10:47:58;95945.53;;;17.50;55.96
32197;BME280;18697;42.770;23.400;2023-05-09T10:50:26;95942.63;;;17.33;55.71
32197;BME280;18697;42.770;23.400;2023-05-09T10:55:48;95955.38;;;16.92;56.76
32197;BME280;18697;42.770;23.400;2023-05-09T10:58:34;95949.72;;;16.86;57.33
32197;BME280;18697;42.770;23.400;2023-05-09T11:01:05;95963.41;;;16.79;57.01
32197;BME280;18697;42.770;23.400;2023-05-09T11:03:54;95956.75;;;17.07;57.75
32197;BME280;18697;42.770;23.400;2023-05-09T11:14:47;95957.91;;;16.90;57.98
32197;BME280;18697;42.770;23.400;2023-05-09T11:22:19;95954.91;;;16.67;57.65
32197;BME280;18697;42.770;23.400;2023-05-09T11:24:49;95951.44;;;16.26;58.74
32197;BME280;18697;42.770;23.400;2023-05-09T11:27:22;95961.72;;;15.89;59.46
32197;BME280;18697;42.770;23.400;2023-05-09T11:29:54;95957.72;;;15.55;60.84
32197;BME280;18697;42.770;23.400;2023-05-09T11:32:27;95957.91;;;15.31;61.86
32197;BME280;18697;42.770;23.400;2023-05-09T11:35:11;95966.78;;;15.29;62.45
32197;BME280;18697;42.770;23.400;2023-05-09T11:38:03;95956.31;;;15.09;62.77
32197;BME280;18697;42.770;23.400;2023-05-09T11:40:31;95965.50;;;15.10;62.63
32197;BME280;18697;42.770;23.400;2023-05-09T11:42:57;95961.13;;;15.24;62.77
32197;BME280;18697;42.770;23.400;2023-05-09T11:45:26;95966.63;;;15.18;62.81
32197;BME280;18697;42.770;23.400;2023-05-09T11:47:52;95947.69;;;14.93;63.58
32197;BME280;18697;42.770;23.400;2023-05-09T11:50:19;95954.28;;;15.10;63.73
32197;BME280;18697;42.770;23.400;2023-05-09T11:52:46;95965.19;;;15.08;63.27
32197;BME280;18697;42.770;23.400;2023-05-09T11:55:13;95958.53;;;15.05;63.41
32197;BME280;18697;42.770;23.400;2023-05-09T11:57:41;95965.59;;;15.01;63.49
32197;BME280;18697;42.770;23.400;2023-05-09T12:00:08;95960.88;;;14.92;63.18
32197;BME280;18697;42.770;23.400;2023-05-09T12:02:35;95960.28;;;15.03;63.94
32197;BME280;18697;42.770;23.400;2023-05-09T12:05:12;95967.94;;;14.88;63.34
32197;BME280;18697;42.770;23.400;2023-05-09T12:07:37;95959.78;;;14.84;63.43
32197;BME280;18697;42.770;23.400;2023-05-09T12:10:13;95962.47;;;14.78;63.28
32197;BME280;18697;42.770;23.400;2023-05-09T12:12:47;95960.28;;;15.03;64.36
32197;BME280;18697;42.770;23.400;2023-05-09T12:15:13;95962.84;;;15.21;63.63
32197;BME280;18697;42.770;23.400;2023-05-09T12:17:40;95954.06;;;15.28;63.60
32197;BME280;18697;42.770;23.400;2023-05-09T12:20:06;95955.50;;;15.24;63.03
32197;BME280;18697;42.770;23.400;2023-05-09T12:22:33;95962.47;;;15.49;62.46
32197;BME280;18697;42.770;23.400;2023-05-09T12:25:00;95963.03;;;15.53;61.45
32197;BME280;18697;42.770;23.400;2023-05-09T12:27:30;95953.09;;;15.52;61.65
32197;BME280;18697;42.770;23.400;2023-05-09T12:29:57;95957.84;;;15.45;61.39
32197;BME280;18697;42.770;23.400;2023-05-09T12:32:24;95961.03;;;15.18;62.18
32197;BME280;18697;42.770;23.400;2023-05-09T12:34:56;95952.81;;;15.29;62.78
32197;BME280;18697;42.770;23.400;2023-05-09T12:37:21;95956.13;;;15.13;61.83
32197;BME280;18697;42.770;23.400;2023-05-09T12:42:29;95956.00;;;15.22;62.67
32197;BME280;18697;42.770;23.400;2023-05-09T12:44:55;95957.69;;;15.34;63.25
32197;BME280;18697;42.770;23.400;2023-05-09T12:47:21;95949.91;;;15.59;61.62
32197;BME280;18697;42.770;23.400;2023-05-09T12:49:49;95951.50;;;15.65;61.14
32197;BME280;18697;42.770;23.400;2023-05-09T12:52:18;95947.66;;;15.63;61.06
32197;BME280;18697;42.770;23.400;2023-05-09T12:54:47;95938.81;;;15.29;61.52
32197;BME280;18697;42.770;23.400;2023-05-09T12:57:23;95939.16;;;15.37;61.87
32197;BME280;18697;42.770;23.400;2023-05-09T12:59:57;95923.00;;;15.26;61.20
32197;BME280;18697;42.770;23.400;2023-05-09T13:02:24;95943.78;;;15.40;61.17
32197;BME280;18697;42.770;23.400;2023-05-09T13:05:07;95940.09;;;15.49;61.49
32197;BME280;18697;42.770;23.400;2023-05-09T13:07:45;95947.31;;;15.55;61.59
32197;BME280;18697;42.770;23.400;2023-05-09T13:10:19;95934.97;;;15.67;61.76
32197;BME280;18697;42.770;23.400;2023-05-09T13:12:48;95931.13;;;15.65;60.37
32197;BME280;18697;42.770;23.400;2023-05-09T13:15:15;95933.50;;;15.52;61.11
32197;BME280;18697;42.770;23.400;2023-05-09T13:17:42;95940.84;;;15.49;61.20
32197;BME280;18697;42.770;23.400;2023-05-09T13:20:07;95933.13;;;15.59;61.98
32197;BME280;18697;42.770;23.400;2023-05-09T13:22:33;95931.19;;;15.50;60.10
32197;BME280;18697;42.770;23.400;2023-05-09T13:24:58;95938.47;;;15.07;61.69
32197;BME280;18697;42.770;23.400;2023-05-09T13:27:24;95939.25;;;15.07;62.66
32197;BME280;18697;42.770;23.400;2023-05-09T13:29:52;95950.19;;;15.26;62.05
32197;BME280;18697;42.770;23.400;2023-05-09T13:32:17;95937.50;;;15.10;63.50